Pugwash, Canada
Current Conditions -  °F | °C
As of 11:00 AM on Wednesday 22 Oct 2014 (Local Time) from CYYG Reporting Station
Broken Clouds Broken Clouds  
Wind Chill: 50°   Ceiling: 13000
Heat Index: 50°   Visibility: 15mi
Dew Point: 43°   Wind: 12mph
Humidity: 76%   Direction: 60°ENE
Pressure: 30.4"   Gusts: 18mph
Location:  45.85°N, 63.65°W
Report Text: CYYG 221400Z 06010G16KT 15SM FEW025 BKN130 BKN250 10/06 A3040 RMK CF1AC4CI1 SLP296
Loading
Personal Weather Stations






























Interactive Weather Map
Tropical Storm Tracking
New forecast layout! Learn more

10-Day Weather Forecast

Advertisements
Track Severe Weather on mobile